Time;durP1;ratioP1;P1;durP2;ratioP2;P2;SDS_P1;SDS_P2;PMS_P1;PMS_P2;Temp;Humidity;BMP_temperature;BMP_pressure;BME280_temperature;BME280_humidity;BME280_pressure;Samples;Min_cycle;Max_cycle;Signal;HPM_P1;HPM_P2
2021/01/31 00:00:30;;;;;;;43.90;23.73;;;;;;;-2.08;79.23;97464.88;1771098;80;21915;-56
2021/01/31 00:03:05;;;;;;;46.40;24.47;;;;;;;-2.07;79.21;97443.33;1769466;80;21369;-57
2021/01/31 00:05:33;;;;;;;45.00;23.73;;;;;;;-2.09;79.21;97385.39;1749723;81;21253;-57
2021/01/31 00:08:00;;;;;;;43.87;21.43;;;;;;;-2.16;79.35;97364.58;1748129;81;21496;-55
2021/01/31 00:10:31;;;;;;;40.57;21.20;;;;;;;-2.21;79.51;97411.33;1717489;83;21225;-55
2021/01/31 00:12:59;;;;;;;39.17;19.60;;;;;;;-2.24;79.70;97420.20;1724341;81;21789;-55
2021/01/31 00:15:31;;;;;;;37.77;19.67;;;;;;;-2.24;79.73;97437.78;1749963;81;21490;-57
2021/01/31 00:17:58;;;;;;;42.43;21.50;;;;;;;-2.23;79.79;97457.95;1711933;81;21240;-56
2021/01/31 00:20:28;;;;;;;39.67;20.90;;;;;;;-2.21;79.76;97453.50;1764000;80;21875;-56
2021/01/31 00:22:57;;;;;;;37.60;20.93;;;;;;;-2.19;79.69;97458.23;1766763;79;21576;-57
2021/01/31 00:25:24;;;;;;;41.83;21.90;;;;;;;-2.18;79.65;97469.19;1750751;81;21164;-58
2021/01/31 00:27:51;;;;;;;43.03;21.33;;;;;;;-2.20;79.60;97473.64;1748457;80;21910;-57
2021/01/31 00:30:36;;;;;;;42.33;20.77;;;;;;;-2.21;79.59;97478.53;1725752;81;21659;-56
2021/01/31 00:33:15;;;;;;;34.87;20.90;;;;;;;-2.22;79.54;97478.13;1715112;83;21625;-58
2021/01/31 00:35:42;;;;;;;40.00;21.90;;;;;;;-2.21;79.61;97484.64;1764095;80;21457;-57
2021/01/31 00:38:12;;;;;;;40.87;21.10;;;;;;;-2.24;79.53;97486.08;1766195;80;21198;-58
2021/01/31 00:40:39;;;;;;;38.03;20.80;;;;;;;-2.27;79.58;97494.08;1767148;80;21332;-56
2021/01/31 00:43:07;;;;;;;42.53;20.83;;;;;;;-2.28;79.66;97501.57;1768361;80;21573;-56
2021/01/31 00:45:35;;;;;;;32.97;19.40;;;;;;;-2.29;79.70;97503.80;1766150;79;21307;-57
2021/01/31 00:48:02;;;;;;;35.47;19.93;;;;;;;-2.28;79.63;97505.52;1761781;79;21175;-58
2021/01/31 00:50:33;;;;;;;31.90;18.20;;;;;;;-2.29;79.72;97511.70;1762130;80;21158;-56
2021/01/31 00:53:04;;;;;;;33.10;18.40;;;;;;;-2.28;79.68;97513.42;1770132;80;21198;-57
2021/01/31 00:55:31;;;;;;;29.73;16.37;;;;;;;-2.28;79.52;97513.42;1763358;79;21242;-56
2021/01/31 00:57:58;;;;;;;30.10;17.27;;;;;;;-2.29;79.47;97528.83;1766049;79;21166;-57
2021/01/31 01:00:32;;;;;;;30.40;16.50;;;;;;;-2.37;79.22;97535.66;1767132;80;21024;-57
2021/01/31 01:03:01;;;;;;;26.27;16.48;;;;;;;-2.45;79.21;97533.73;1767386;80;21158;-57
2021/01/31 01:05:30;;;;;;;27.67;16.03;;;;;;;-2.51;79.20;97540.97;1762799;80;21436;-54
2021/01/31 01:07:58;;;;;;;30.13;15.63;;;;;;;-2.54;79.22;97548.96;1768895;79;21582;-56
2021/01/31 01:10:30;;;;;;;27.03;15.07;;;;;;;-2.56;79.21;97546.86;1770437;80;21159;-55
2021/01/31 01:13:00;;;;;;;24.43;13.53;;;;;;;-2.59;79.04;97551.75;1769443;80;21178;-57
2021/01/31 01:15:28;;;;;;;23.70;13.57;;;;;;;-2.61;78.95;97555.34;1751034;81;21619;-55
2021/01/31 01:17:56;;;;;;;26.40;16.23;;;;;;;-2.65;78.95;97561.63;1715149;81;21365;-57
2021/01/31 01:20:24;;;;;;;21.67;13.60;;;;;;;-2.70;78.88;97556.02;1750099;81;21244;-56
2021/01/31 01:22:53;;;;;;;21.73;12.27;;;;;;;-2.71;78.86;97555.61;1708436;83;21166;-56
2021/01/31 01:25:21;;;;;;;17.97;11.90;;;;;;;-2.73;78.75;97560.09;1718175;83;21202;-55
2021/01/31 01:27:48;;;;;;;20.23;11.97;;;;;;;-2.74;78.80;97567.58;1715774;81;21655;-56
2021/01/31 01:30:21;;;;;;;23.13;13.37;;;;;;;-2.74;78.76;97566.71;1712022;81;21858;-56
2021/01/31 01:32:49;;;;;;;22.83;11.67;;;;;;;-2.76;78.71;97574.66;1751064;80;21217;-55
2021/01/31 01:35:17;;;;;;;18.70;11.27;;;;;;;-2.74;78.74;97583.83;1711251;81;21192;-55
2021/01/31 01:37:45;;;;;;;16.73;10.93;;;;;;;-2.74;78.66;97589.09;1718426;83;21744;-55
2021/01/31 01:40:33;;;;;;;18.73;10.40;;;;;;;-2.74;78.66;97596.99;1751543;80;22483;-56
2021/01/31 01:43:01;;;;;;;18.87;11.27;;;;;;;-2.73;78.52;97596.09;1747394;80;23535;-55
2021/01/31 01:45:28;;;;;;;14.00;8.13;;;;;;;-2.76;78.49;97600.98;1751050;81;21189;-57
2021/01/31 01:48:04;;;;;;;15.13;8.03;;;;;;;-2.77;78.43;97611.55;1747048;81;22078;-56
2021/01/31 01:50:43;;;;;;;13.93;7.47;;;;;;;-2.79;78.48;97615.55;1751092;81;21192;-56
2021/01/31 01:53:10;;;;;;;11.23;6.23;;;;;;;-2.76;78.42;97623.81;1717437;81;21201;-56
2021/01/31 01:56:08;;;;;;;8.23;5.23;;;;;;;-2.77;78.36;97628.67;1751669;81;21759;-56
2021/01/31 01:58:35;;;;;;;10.93;5.77;;;;;;;-2.77;78.19;97624.27;1718187;83;21204;-57
2021/01/31 02:01:03;;;;;;;11.57;6.13;;;;;;;-2.81;78.22;97628.37;1748405;80;21122;-57
2021/01/31 02:03:36;;;;;;;9.40;4.90;;;;;;;-2.82;78.14;97632.77;1721026;83;21787;-56
2021/01/31 02:06:16;;;;;;;5.17;3.40;;;;;;;-2.85;78.13;97639.88;1716124;83;21181;-54
2021/01/31 02:08:46;;;;;;;6.90;3.87;;;;;;;-2.87;78.18;97648.27;1749475;81;21197;-54
2021/01/31 02:11:14;;;;;;;5.97;3.73;;;;;;;-2.88;78.11;97650.03;1749702;81;22332;-57
2021/01/31 02:13:43;;;;;;;5.10;2.67;;;;;;;-2.89;78.09;97664.58;1715940;81;21587;-56
2021/01/31 02:16:17;;;;;;;5.00;3.00;;;;;;;-2.90;78.05;97666.80;1768305;80;21183;-55
2021/01/31 02:19:14;;;;;;;6.07;2.57;;;;;;;-2.91;77.98;97676.47;1747275;80;21134;-54
2021/01/31 02:21:52;;;;;;;4.17;3.17;;;;;;;-2.94;78.03;97680.48;1768218;80;21309;-56
2021/01/31 02:25:11;;;;;;;4.83;2.07;;;;;;;-2.96;78.09;97689.32;1770231;79;21111;-56
2021/01/31 02:27:59;;;;;;;4.00;1.93;;;;;;;-2.94;78.08;97687.52;1705693;80;21541;-55
2021/01/31 02:31:08;;;;;;;4.73;1.80;;;;;;;-2.92;78.02;97705.01;1766705;80;21151;-55
2021/01/31 02:34:02;;;;;;;4.67;2.20;;;;;;;-2.91;78.02;97702.80;1766908;79;21108;-56
2021/01/31 02:36:44;;;;;;;2.70;1.67;;;;;;;-2.91;77.99;97707.19;1766202;80;21199;-55
2021/01/31 02:39:35;;;;;;;3.10;1.67;;;;;;;-2.92;78.03;97714.67;1764063;80;21127;-56
2021/01/31 02:42:33;;;;;;;3.53;1.70;;;;;;;-2.92;78.02;97720.80;1768647;80;21119;-55
2021/01/31 02:45:24;;;;;;;3.20;1.37;;;;;;;-2.92;77.99;97722.12;1771255;79;21649;-57
2021/01/31 02:48:15;;;;;;;2.43;1.30;;;;;;;-2.92;77.93;97741.00;1766790;80;22332;-55
2021/01/31 02:50:46;;;;;;;4.20;1.87;;;;;;;-2.95;77.92;97762.99;1744387;80;22676;-54
2021/01/31 02:53:32;;;;;;;2.10;1.40;;;;;;;-2.95;77.95;97764.76;1774173;80;21155;-55
2021/01/31 02:56:11;;;;;;;2.40;1.40;;;;;;;-2.94;78.00;97781.84;1776854;79;21210;-57
2021/01/31 02:58:45;;;;;;;3.50;1.70;;;;;;;-2.92;78.05;97783.12;1774225;79;21819;-56
2021/01/31 03:01:29;;;;;;;3.90;1.60;;;;;;;-2.92;78.14;97793.65;1774739;80;21460;-56
2021/01/31 03:04:19;;;;;;;4.40;2.10;;;;;;;-2.90;78.21;97802.38;1774077;79;21209;-54
2021/01/31 03:06:51;;;;;;;2.43;1.07;;;;;;;-2.86;78.24;97817.17;1773707;79;21942;-53
2021/01/31 03:09:29;;;;;;;2.83;1.30;;;;;;;-2.86;78.24;97820.67;1775190;80;21162;-54
2021/01/31 03:12:05;;;;;;;3.53;1.23;;;;;;;-2.84;78.33;97833.36;1776942;80;21060;-54
2021/01/31 03:14:38;;;;;;;1.70;1.20;;;;;;;-2.83;78.33;97841.67;1747031;80;21182;-55
2021/01/31 03:17:22;;;;;;;2.77;1.00;;;;;;;-2.82;78.35;97853.07;1775807;80;21570;-53
2021/01/31 03:19:58;;;;;;;2.25;1.05;;;;;;;-2.83;78.30;97860.10;1772821;80;21988;-54
2021/01/31 03:22:29;;;;;;;2.73;1.00;;;;;;;-2.85;78.42;97861.03;1776667;80;22486;-54
2021/01/31 03:25:00;;;;;;;2.17;1.20;;;;;;;-2.82;78.44;97878.09;1773856;79;21171;-54
2021/01/31 03:27:34;;;;;;;3.37;1.30;;;;;;;-2.80;78.39;97875.80;1736377;81;21150;-55
2021/01/31 03:30:06;;;;;;;2.27;1.00;;;;;;;-2.77;78.34;97875.73;1723246;82;22182;-54
2021/01/31 03:32:44;;;;;;;1.40;0.83;;;;;;;-2.74;78.23;97878.75;1773830;80;21428;-54
2021/01/31 03:35:22;;;;;;;3.10;1.00;;;;;;;-2.73;78.21;97880.05;1819795;76;27095;-54
2021/01/31 03:37:57;;;;;;;2.37;1.00;;;;;;;-2.77;78.20;97886.27;1794365;77;21096;-58
2021/01/31 03:40:25;;;;;;;1.73;1.07;;;;;;;-2.75;78.25;97894.14;1751703;79;21205;-55
2021/01/31 03:42:54;;;;;;;2.20;1.10;;;;;;;-2.73;78.21;97903.74;1782946;78;22250;-56
2021/01/31 03:45:32;;;;;;;2.53;1.03;;;;;;;-2.70;78.16;97912.00;1776763;79;21190;-59
2021/01/31 03:48:17;;;;;;;4.03;1.27;;;;;;;-2.69;78.12;97914.59;1775825;79;21032;-56
2021/01/31 03:50:44;;;;;;;1.77;1.30;;;;;;;-2.65;78.12;97923.75;1744454;79;26199;-56
2021/01/31 03:53:11;;;;;;;2.53;1.40;;;;;;;-2.64;78.05;97930.30;1768762;79;21246;-58
2021/01/31 03:55:41;;;;;;;3.70;1.23;;;;;;;-2.61;78.01;97935.47;1772806;79;21162;-58
2021/01/31 03:58:09;;;;;;;4.30;1.20;;;;;;;-2.60;77.92;97938.98;1772370;79;21039;-56
2021/01/31 04:00:40;;;;;;;1.20;1.00;;;;;;;-2.60;77.85;97938.98;1745547;79;21218;-55
2021/01/31 04:03:15;;;;;;;1.80;1.17;;;;;;;-2.62;77.76;97941.64;1771667;78;21218;-55
2021/01/31 04:05:54;;;;;;;2.57;1.27;;;;;;;-2.61;77.77;97943.83;1775872;79;22327;-56
2021/01/31 04:08:22;;;;;;;2.63;1.43;;;;;;;-2.64;77.50;97946.11;1773571;79;21241;-56
2021/01/31 04:10:49;;;;;;;2.77;1.13;;;;;;;-2.68;77.51;97958.47;1774813;79;21595;-58
2021/01/31 04:13:16;;;;;;;3.07;1.43;;;;;;;-2.68;77.53;97960.23;1778099;78;21214;-57
2021/01/31 04:15:53;;;;;;;4.43;1.50;;;;;;;-2.70;77.56;97971.25;1771898;79;21454;-59
2021/01/31 04:18:22;;;;;;;2.90;1.53;;;;;;;-2.70;77.47;97976.52;1778196;79;23537;-56
2021/01/31 04:20:50;;;;;;;3.77;1.80;;;;;;;-2.67;77.42;97979.09;1771407;79;21207;-57
2021/01/31 04:23:18;;;;;;;2.40;1.47;;;;;;;-2.69;77.33;97976.48;1771361;79;21148;-57
2021/01/31 04:25:46;;;;;;;1.77;1.63;;;;;;;-2.70;77.41;97980.47;1770372;79;21199;-53
2021/01/31 04:28:16;;;;;;;3.53;1.17;;;;;;;-2.70;77.31;97987.92;1771527;79;21066;-54
2021/01/31 04:30:44;;;;;;;4.30;1.17;;;;;;;-2.70;77.30;97988.37;1773915;79;21362;-53
2021/01/31 04:33:13;;;;;;;4.33;1.33;;;;;;;-2.72;77.27;97995.43;1772672;79;21530;-55
2021/01/31 04:35:40;;;;;;;2.63;1.37;;;;;;;-2.72;77.31;98004.65;1771507;79;20933;-53
2021/01/31 04:38:07;;;;;;;3.00;1.70;;;;;;;-2.70;77.36;98008.12;1778206;79;21163;-56
2021/01/31 04:40:35;;;;;;;3.00;2.10;;;;;;;-2.67;77.39;98019.91;1771699;79;21699;-55
2021/01/31 04:43:03;;;;;;;3.27;1.87;;;;;;;-2.65;77.39;98026.47;1774808;79;21360;-55
2021/01/31 04:45:30;;;;;;;3.43;1.47;;;;;;;-2.65;77.32;98029.97;1780888;79;21190;-54
2021/01/31 04:48:25;;;;;;;3.87;1.70;;;;;;;-2.66;77.36;98036.14;1777354;79;21154;-56
2021/01/31 04:51:13;;;;;;;2.33;1.30;;;;;;;-2.64;77.31;98040.05;1775508;79;21191;-55
2021/01/31 04:53:53;;;;;;;3.23;1.53;;;;;;;-2.65;77.31;98047.09;1774045;78;21505;-53
2021/01/31 04:56:35;;;;;;;4.27;2.37;;;;;;;-2.65;77.39;98050.17;1770715;79;21393;-54
2021/01/31 04:59:32;;;;;;;4.90;2.27;;;;;;;-2.63;77.39;98054.48;1778212;79;21250;-55
2021/01/31 05:02:18;;;;;;;2.97;1.30;;;;;;;-2.60;77.35;98061.45;1780160;79;21166;-56
2021/01/31 05:04:54;;;;;;;4.47;2.05;;;;;;;-2.61;77.22;98067.63;1773767;79;21174;-56
2021/01/31 05:07:38;;;;;;;4.33;2.57;;;;;;;-2.63;77.27;98076.88;1767749;79;21186;-56
2021/01/31 05:10:07;;;;;;;3.47;2.00;;;;;;;-2.63;77.29;98087.41;1771237;78;21266;-58
2021/01/31 05:12:50;;;;;;;3.97;2.50;;;;;;;-2.63;77.25;98093.99;1771987;79;21229;-54
2021/01/31 05:15:27;;;;;;;5.67;2.30;;;;;;;-2.64;77.21;98101.51;1771526;79;21183;-53
2021/01/31 05:17:57;;;;;;;4.17;2.30;;;;;;;-2.64;77.25;98113.36;1777056;79;21092;-56
2021/01/31 05:20:28;;;;;;;4.60;2.40;;;;;;;-2.64;77.20;98114.67;1748885;79;21091;-55
2021/01/31 05:22:58;;;;;;;2.07;1.80;;;;;;;-2.64;77.25;98121.70;1771874;79;21200;-55
2021/01/31 05:25:35;;;;;;;4.40;2.10;;;;;;;-2.64;77.21;98126.53;1774692;79;21116;-54
2021/01/31 05:28:06;;;;;;;4.73;3.40;;;;;;;-2.65;77.20;98130.06;1774443;78;21132;-55
2021/01/31 05:30:36;;;;;;;4.30;2.07;;;;;;;-2.63;77.22;98138.77;1773176;79;21115;-57
2021/01/31 05:33:10;;;;;;;6.57;2.87;;;;;;;-2.63;77.20;98146.67;1757475;79;20953;-57
2021/01/31 05:35:44;;;;;;;6.53;3.13;;;;;;;-2.63;77.21;98147.98;1786018;78;22084;-55
2021/01/31 05:38:13;;;;;;;6.40;3.22;;;;;;;-2.61;77.20;98143.56;1788486;78;21121;-57
2021/01/31 05:40:43;;;;;;;5.10;3.53;;;;;;;-2.58;77.14;98150.09;1787865;78;21099;-58
2021/01/31 05:43:22;;;;;;;6.50;3.43;;;;;;;-2.55;77.10;98155.76;1788383;78;21102;-54
2021/01/31 05:45:49;;;;;;;6.10;3.43;;;;;;;-2.55;77.08;98165.81;1793334;78;21663;-53
2021/01/31 05:48:22;;;;;;;8.70;3.90;;;;;;;-2.55;77.08;98175.03;1789339;78;22358;-56
2021/01/31 05:50:49;;;;;;;5.53;3.50;;;;;;;-2.54;77.04;98170.63;1789588;78;21091;-58
2021/01/31 05:53:34;;;;;;;5.77;3.17;;;;;;;-2.53;77.03;98171.92;1789008;78;21103;-54
2021/01/31 05:56:28;;;;;;;6.80;3.67;;;;;;;-2.53;77.03;98179.83;1793431;78;21122;-55
2021/01/31 05:59:18;;;;;;;5.75;3.67;;;;;;;-2.51;77.04;98188.58;1782986;78;21457;-55
2021/01/31 06:02:02;;;;;;;6.87;4.73;;;;;;;-2.51;77.00;98192.53;1736685;81;21545;-55
2021/01/31 06:04:29;;;;;;;5.67;3.63;;;;;;;-2.51;76.95;98193.84;1734600;81;21142;-55
2021/01/31 06:07:12;;;;;;;4.43;2.90;;;;;;;-2.49;76.92;98196.45;1735058;81;21140;-54
2021/01/31 06:09:49;;;;;;;7.77;3.47;;;;;;;-2.48;76.90;98206.97;1707308;82;21247;-54
2021/01/31 06:12:25;;;;;;;6.63;3.70;;;;;;;-2.49;76.77;98213.12;1696771;82;21207;-57
2021/01/31 06:15:19;;;;;;;6.23;3.40;;;;;;;-2.52;76.79;98212.31;1696474;82;21410;-54
2021/01/31 06:18:03;;;;;;;7.93;4.03;;;;;;;-2.52;76.77;98218.45;1686863;82;21676;-54
2021/01/31 06:20:36;;;;;;;7.20;3.37;;;;;;;-2.52;76.80;98222.41;1701840;82;22531;-55
2021/01/31 06:23:04;;;;;;;7.33;3.73;;;;;;;-2.48;76.78;98224.09;1701198;82;21175;-54
2021/01/31 06:25:38;;;;;;;5.50;3.53;;;;;;;-2.44;76.64;98231.46;1699794;82;21144;-53
2021/01/31 06:28:19;;;;;;;4.83;2.97;;;;;;;-2.43;76.55;98232.75;1697861;82;21450;-56
2021/01/31 06:31:15;;;;;;;6.13;3.73;;;;;;;-2.43;76.53;98234.08;1698935;82;21897;-54
2021/01/31 06:33:43;;;;;;;7.00;3.70;;;;;;;-2.41;76.51;98238.87;1699698;82;21588;-54
2021/01/31 06:36:19;;;;;;;8.50;4.67;;;;;;;-2.38;76.39;98240.10;1698177;82;21482;-54
2021/01/31 06:39:13;;;;;;;8.37;4.50;;;;;;;-2.36;76.38;98241.39;1695277;82;21183;-54
2021/01/31 06:42:19;;;;;;;8.55;4.65;;;;;;;-2.36;76.33;98238.76;1705104;81;21254;-54
2021/01/31 06:45:19;;;;;;;7.28;3.95;;;;;;;-2.35;76.27;98240.05;1664626;81;22246;-56
2021/01/31 06:48:14;;;;;;;10.37;5.03;;;;;;;-2.33;76.34;98246.61;1721598;81;21758;-55
2021/01/31 06:51:07;;;;;;;7.57;3.80;;;;;;;-2.33;76.34;98247.48;1664597;82;21783;-55
2021/01/31 06:54:01;;;;;;;8.67;4.83;;;;;;;-2.32;76.32;98258.45;1721936;81;21187;-53
2021/01/31 06:56:45;;;;;;;8.67;5.43;;;;;;;-2.32;76.38;98262.84;1658744;81;21476;-58
2021/01/31 06:59:56;;;;;;;9.18;4.90;;;;;;;-2.31;76.40;98268.09;1725052;81;21192;-58
2021/01/31 07:02:50;;;;;;;10.77;5.73;;;;;;;-2.27;76.40;98271.96;1682676;81;21790;-56
2021/01/31 07:06:00;;;;;;;11.73;4.67;;;;;;;-2.29;76.49;98274.17;1732894;81;21266;-55
2021/01/31 07:08:54;;;;;;;10.30;5.50;;;;;;;-2.25;76.50;98287.30;1730950;81;22126;-55
2021/01/31 07:11:44;;;;;;;9.93;4.30;;;;;;;-2.23;76.53;98282.88;1731454;81;21618;-55
2021/01/31 07:14:41;;;;;;;8.30;4.57;;;;;;;-2.20;76.61;98301.24;1724136;81;21653;-57
2021/01/31 07:17:20;;;;;;;13.53;6.37;;;;;;;-2.17;76.54;98300.74;1732225;81;21691;-54
2021/01/31 07:20:08;;;;;;;12.27;6.07;;;;;;;-2.15;76.48;98308.18;1727804;81;21223;-53
2021/01/31 07:22:49;;;;;;;12.10;6.87;;;;;;;-2.12;76.49;98305.91;1734290;81;21207;-53
2021/01/31 07:25:29;;;;;;;11.93;5.93;;;;;;;-2.11;76.46;98316.87;1727188;81;22135;-55
2021/01/31 07:28:18;;;;;;;12.10;7.13;;;;;;;-2.11;76.53;98323.02;1735049;81;21163;-54
2021/01/31 07:30:57;;;;;;;15.07;6.07;;;;;;;-2.07;76.53;98331.74;1731693;81;21200;-53
2021/01/31 07:33:57;;;;;;;12.73;7.33;;;;;;;-2.05;76.50;98337.41;1722832;81;21677;-55
2021/01/31 07:36:34;;;;;;;13.37;6.43;;;;;;;-2.01;76.50;98348.30;1732690;81;21225;-54
2021/01/31 07:39:12;;;;;;;15.20;8.03;;;;;;;-1.98;76.37;98346.93;1731713;81;21477;-56
2021/01/31 07:41:45;;;;;;;15.90;8.03;;;;;;;-1.96;76.25;98353.02;1732129;81;22000;-55
2021/01/31 07:44:13;;;;;;;14.33;7.53;;;;;;;-1.97;76.24;98353.95;1733568;81;21559;-58
2021/01/31 07:46:40;;;;;;;12.53;7.10;;;;;;;-1.94;76.25;98360.45;1724260;81;21142;-57
2021/01/31 07:49:08;;;;;;;13.67;7.90;;;;;;;-1.90;76.21;98362.59;1733149;81;21208;-57
2021/01/31 07:51:42;;;;;;;15.07;8.23;;;;;;;-1.87;76.14;98371.73;1731542;81;21750;-55
2021/01/31 07:54:27;;;;;;;12.82;7.55;;;;;;;-1.85;76.04;98369.08;1730713;81;22068;-54
2021/01/31 07:56:55;;;;;;;14.13;7.23;;;;;;;-1.83;75.97;98373.42;1727585;81;21178;-57
2021/01/31 07:59:27;;;;;;;16.43;7.40;;;;;;;-1.77;75.89;98381.66;1731132;81;22263;-54
2021/01/31 08:01:55;;;;;;;12.90;7.60;;;;;;;-1.74;75.81;98386.43;1725189;81;21228;-55
2021/01/31 08:04:37;;;;;;;12.00;6.90;;;;;;;-1.70;75.67;98381.97;1692964;82;21865;-57
2021/01/31 08:09:34;;;;;;;11.47;6.77;;;;;;;-1.57;75.36;98380.34;1798783;78;26895;-58
2021/01/31 08:12:08;;;;;;;12.93;5.87;;;;;;;-1.57;75.13;98386.07;1769137;80;21178;-55
2021/01/31 08:15:26;;;;;;;9.03;5.25;;;;;;;-1.53;75.06;98392.55;1771788;80;21194;-57
2021/01/31 08:18:00;;;;;;;7.50;4.13;;;;;;;-1.46;74.74;98394.63;1773739;80;21447;-55
2021/01/31 08:20:41;;;;;;;10.27;5.13;;;;;;;-1.38;74.21;98405.02;1772402;80;21004;-55
2021/01/31 08:23:34;;;;;;;8.67;3.90;;;;;;;-1.34;73.95;98407.55;1738085;81;20980;-58
2021/01/31 08:26:05;;;;;;;7.23;3.90;;;;;;;-1.26;73.71;98416.61;1710461;81;21446;-58
2021/01/31 08:28:35;;;;;;;8.07;3.90;;;;;;;-1.20;73.42;98417.36;1713891;83;21444;-58
2021/01/31 08:31:13;;;;;;;7.63;4.40;;;;;;;-1.13;72.98;98421.17;1739819;81;21770;-56
2021/01/31 08:33:43;;;;;;;9.30;3.77;;;;;;;-1.09;72.59;98426.79;1709717;81;20949;-55
2021/01/31 08:36:23;;;;;;;9.03;3.60;;;;;;;-1.06;72.58;98430.69;1713559;83;21171;-58
2021/01/31 08:38:52;;;;;;;5.93;3.07;;;;;;;-1.00;71.76;98434.50;1712499;83;21100;-59
2021/01/31 08:41:35;;;;;;;5.50;2.83;;;;;;;-0.99;71.56;98438.88;1678274;83;21364;-59
2021/01/31 08:44:17;;;;;;;4.93;2.77;;;;;;;-0.95;71.58;98450.69;1683651;82;21194;-55
2021/01/31 08:46:59;;;;;;;8.60;2.67;;;;;;;-0.93;70.69;98447.98;1679129;82;21183;-56
2021/01/31 08:49:26;;;;;;;6.00;2.40;;;;;;;-0.96;70.51;98456.86;1678642;82;22698;-55
2021/01/31 08:52:07;;;;;;;3.83;1.83;;;;;;;-0.97;70.47;98452.48;1683229;82;21223;-59
2021/01/31 08:54:34;;;;;;;3.87;2.57;;;;;;;-0.95;70.00;98451.13;1673596;84;21705;-56
2021/01/31 08:57:06;;;;;;;3.23;1.53;;;;;;;-0.95;69.78;98459.93;1694617;82;21660;-54
2021/01/31 08:59:39;;;;;;;4.27;1.60;;;;;;;-0.90;69.07;98452.75;1691491;82;21517;-54
2021/01/31 09:02:21;;;;;;;5.03;1.70;;;;;;;-0.87;68.87;98448.73;1673511;83;21135;-56
2021/01/31 09:04:55;;;;;;;3.20;1.23;;;;;;;-0.85;68.34;98452.18;1694940;82;21210;-54
2021/01/31 09:07:44;;;;;;;2.85;1.30;;;;;;;-0.81;67.84;98467.52;1673599;84;21412;-57
2021/01/31 09:13:34;;;;;;;3.07;1.40;;;;;;;-0.64;67.33;98482.53;1822877;76;26847;-54
2021/01/31 09:16:23;;;;;;;3.37;1.87;;;;;;;-0.61;67.18;98479.83;1796020;77;21167;-56
2021/01/31 09:19:19;;;;;;;5.60;2.03;;;;;;;-0.54;66.66;98483.19;1793915;77;22600;-55
2021/01/31 09:21:47;;;;;;;3.00;1.73;;;;;;;-0.50;66.32;98488.80;1737344;80;21261;-59
2021/01/31 09:24:16;;;;;;;3.10;2.00;;;;;;;-0.47;66.25;98489.61;1773620;77;21186;-56
2021/01/31 09:26:53;;;;;;;2.50;1.07;;;;;;;-0.43;66.38;98496.57;1791687;77;21179;-57
2021/01/31 09:29:24;;;;;;;2.30;1.20;;;;;;;-0.37;65.60;98502.60;1795428;78;21020;-56
2021/01/31 09:32:00;;;;;;;2.93;1.20;;;;;;;-0.34;65.54;98501.22;1795052;78;22349;-59
2021/01/31 09:34:28;;;;;;;2.90;1.30;;;;;;;-0.36;65.10;98496.41;1792277;78;21178;-56
2021/01/31 09:37:11;;;;;;;3.50;1.30;;;;;;;-0.40;65.08;98503.54;1792681;78;21052;-56
2021/01/31 09:39:39;;;;;;;3.53;1.53;;;;;;;-0.35;65.36;98502.98;1796507;77;21087;-57
2021/01/31 09:42:06;;;;;;;3.93;1.17;;;;;;;-0.27;65.38;98510.28;1787318;78;21084;-54
2021/01/31 09:44:35;;;;;;;2.97;1.47;;;;;;;-0.18;65.22;98507.41;1779461;79;22039;-56
2021/01/31 09:47:06;;;;;;;2.40;1.33;;;;;;;-0.11;64.78;98511.63;1775734;79;21206;-54
2021/01/31 09:49:33;;;;;;;1.73;1.00;;;;;;;-0.07;64.78;98510.62;1774381;79;21198;-55
2021/01/31 09:52:09;;;;;;;3.17;1.00;;;;;;;-0.08;64.34;98511.53;1772453;79;21751;-53
2021/01/31 09:54:37;;;;;;;3.57;1.10;;;;;;;-0.08;64.08;98510.21;1778742;78;21277;-54
2021/01/31 09:57:16;;;;;;;3.77;1.40;;;;;;;-0.06;64.13;98510.18;1776248;79;21209;-53
2021/01/31 09:59:43;;;;;;;4.17;1.47;;;;;;;-0.05;63.85;98511.47;1773853;79;21171;-54
2021/01/31 10:02:20;;;;;;;2.43;1.20;;;;;;;-0.06;63.33;98514.14;1777139;79;21052;-54
2021/01/31 10:04:58;;;;;;;3.60;1.20;;;;;;;-0.03;63.34;98516.73;1776219;78;21928;-54
2021/01/31 10:07:40;;;;;;;3.97;1.50;;;;;;;-0.01;63.16;98527.69;1777065;79;21174;-55
2021/01/31 10:10:40;;;;;;;3.70;1.40;;;;;;;-0.01;62.39;98525.05;1775261;79;21210;-55
2021/01/31 10:13:34;;;;;;;3.17;1.40;;;;;;;-0.08;62.46;98541.08;1775921;79;21183;-57
2021/01/31 10:16:05;;;;;;;3.27;1.15;;;;;;;-0.12;62.48;98531.05;1779390;79;21454;-56
2021/01/31 10:18:36;;;;;;;3.30;1.10;;;;;;;-0.08;61.91;98545.05;1777809;79;21178;-55
2021/01/31 10:21:31;;;;;;;1.73;1.00;;;;;;;-0.13;62.35;98542.53;1774820;79;21183;-54
2021/01/31 10:24:20;;;;;;;1.33;0.87;;;;;;;-0.15;62.42;98552.28;1774318;79;21496;-56
2021/01/31 10:26:47;;;;;;;1.60;1.00;;;;;;;-0.15;62.33;98545.66;1750426;79;21195;-56
2021/01/31 10:29:30;;;;;;;3.53;1.30;;;;;;;-0.14;62.28;98551.38;1774371;79;21158;-55
2021/01/31 10:32:19;;;;;;;2.10;1.13;;;;;;;-0.14;62.30;98556.66;1776688;79;21208;-56
2021/01/31 10:34:46;;;;;;;2.10;1.07;;;;;;;-0.14;62.12;98569.02;1775675;78;21146;-57
2021/01/31 10:37:22;;;;;;;3.27;1.10;;;;;;;-0.12;62.23;98571.17;1777549;79;21314;-56
2021/01/31 10:39:49;;;;;;;2.20;0.90;;;;;;;-0.12;62.27;98575.14;1775679;78;21150;-58
2021/01/31 10:42:16;;;;;;;2.10;1.00;;;;;;;-0.08;61.85;98576.34;1781078;79;21162;-57
2021/01/31 10:44:43;;;;;;;1.60;0.90;;;;;;;-0.05;60.87;98574.08;1773956;78;21202;-55
2021/01/31 10:47:11;;;;;;;2.73;1.23;;;;;;;-0.07;60.60;98587.34;1776280;79;21174;-58
2021/01/31 10:49:38;;;;;;;1.83;1.00;;;;;;;-0.10;60.59;98590.08;1772706;79;22096;-57
2021/01/31 10:52:05;;;;;;;1.60;0.80;;;;;;;-0.08;60.33;98592.66;1769991;79;21175;-57
2021/01/31 10:54:32;;;;;;;3.30;1.00;;;;;;;-0.12;60.32;98593.66;1777370;79;21593;-59
2021/01/31 10:57:00;;;;;;;1.53;0.80;;;;;;;-0.19;59.85;98594.27;1776651;79;21182;-57
2021/01/31 10:59:27;;;;;;;2.40;1.40;;;;;;;-0.22;59.94;98597.42;1778301;79;21190;-55
2021/01/31 11:01:55;;;;;;;1.87;0.77;;;;;;;-0.26;60.21;98595.77;1775363;79;22191;-56
2021/01/31 11:04:22;;;;;;;1.60;0.70;;;;;;;-0.29;59.47;98596.70;1777721;79;21202;-54
2021/01/31 11:06:50;;;;;;;1.67;0.77;;;;;;;-0.33;59.27;98590.18;1779371;79;21517;-55
2021/01/31 11:09:17;;;;;;;1.30;0.97;;;;;;;-0.36;59.35;98592.47;1776834;78;21411;-58
2021/01/31 11:11:44;;;;;;;1.50;0.70;;;;;;;-0.40;59.35;98604.00;1777491;78;21134;-58
2021/01/31 11:14:12;;;;;;;2.27;0.90;;;;;;;-0.45;59.57;98610.73;1793955;79;22128;-58
2021/01/31 11:16:39;;;;;;;1.30;0.70;;;;;;;-0.46;59.38;98612.95;1791636;78;21135;-57
2021/01/31 11:19:07;;;;;;;1.07;0.67;;;;;;;-0.47;59.20;98621.78;1791266;79;21115;-58
2021/01/31 11:21:34;;;;;;;1.20;0.70;;;;;;;-0.46;59.25;98622.66;1790679;78;20968;-57
2021/01/31 11:24:02;;;;;;;1.30;0.60;;;;;;;-0.46;59.39;98622.66;1791379;79;21178;-57
2021/01/31 11:26:29;;;;;;;1.40;0.90;;;;;;;-0.45;59.41;98624.40;1791204;79;21204;-56
2021/01/31 11:28:56;;;;;;;1.23;0.80;;;;;;;-0.45;59.43;98625.72;1791509;79;21541;-56
2021/01/31 11:31:24;;;;;;;1.10;0.70;;;;;;;-0.40;59.11;98626.02;1788165;78;21106;-56
2021/01/31 11:33:54;;;;;;;1.23;0.60;;;;;;;-0.40;58.53;98629.98;1793119;79;21095;-55
2021/01/31 11:36:22;;;;;;;1.20;0.90;;;;;;;-0.36;58.79;98627.29;1790086;79;21090;-56
2021/01/31 11:38:50;;;;;;;2.07;0.60;;;;;;;-0.32;58.89;98626.30;1791360;79;22295;-57
2021/01/31 11:41:17;;;;;;;4.27;0.93;;;;;;;-0.20;58.95;98630.00;1789973;78;21102;-57
2021/01/31 11:43:44;;;;;;;4.47;1.10;;;;;;;-0.09;59.14;98634.59;1789126;79;21652;-56
2021/01/31 11:46:12;;;;;;;1.97;0.90;;;;;;;0.02;59.37;98634.32;1789567;79;20952;-58
2021/01/31 11:48:40;;;;;;;2.70;0.90;;;;;;;0.11;59.71;98635.43;1791634;79;21107;-58
2021/01/31 11:51:07;;;;;;;2.00;0.93;;;;;;;0.19;59.80;98637.44;1788539;78;21569;-57
2021/01/31 11:53:36;;;;;;;1.60;0.90;;;;;;;0.25;59.64;98636.86;1790641;79;21047;-57
2021/01/31 11:56:04;;;;;;;2.87;1.20;;;;;;;0.28;59.32;98632.79;1787354;78;21182;-56
2021/01/31 11:58:31;;;;;;;1.70;1.10;;;;;;;0.27;59.18;98635.47;1791170;79;21106;-56
2021/01/31 12:00:59;;;;;;;4.80;1.10;;;;;;;0.25;59.39;98638.17;1790017;79;21197;-58
2021/01/31 12:03:26;;;;;;;2.63;0.97;;;;;;;0.29;59.41;98630.56;1789076;78;21166;-58
2021/01/31 12:05:54;;;;;;;2.43;1.20;;;;;;;0.37;59.45;98634.34;1790753;79;21166;-57
2021/01/31 12:08:21;;;;;;;2.73;1.40;;;;;;;0.38;59.14;98630.78;1789975;78;21234;-58
2021/01/31 12:10:50;;;;;;;3.80;1.70;;;;;;;0.37;58.93;98635.66;1787626;78;21109;-56
2021/01/31 12:13:18;;;;;;;2.53;1.30;;;;;;;0.34;58.84;98642.38;1780824;79;21398;-57